sensor_id;sensor_type;location;lat;lon;timestamp;temperature;humidity
36186;DHT22;22228;53.222;7.446;2022-11-20T00:00:14;1.00;99.90
36186;DHT22;22228;53.222;7.446;2022-11-20T00:02:35;1.00;99.90
36186;DHT22;22228;53.222;7.446;2022-11-20T00:04:55;1.00;99.90
36186;DHT22;22228;53.222;7.446;2022-11-20T00:07:17;0.90;99.90
36186;DHT22;22228;53.222;7.446;2022-11-20T00:09:37;0.90;99.90
36186;DHT22;22228;53.222;7.446;2022-11-20T00:11:58;0.90;99.90
36186;DHT22;22228;53.222;7.446;2022-11-20T00:14:18;1.00;99.90
36186;DHT22;22228;53.222;7.446;2022-11-20T00:16:40;1.00;99.90
36186;DHT22;22228;53.222;7.446;2022-11-20T00:19:01;1.00;99.90
36186;DHT22;22228;53.222;7.446;2022-11-20T00:21:23;1.00;99.90
36186;DHT22;22228;53.222;7.446;2022-11-20T00:23:43;1.00;99.90
36186;DHT22;22228;53.222;7.446;2022-11-20T00:26:05;1.00;99.90
36186;DHT22;22228;53.222;7.446;2022-11-20T00:28:26;1.00;99.90
36186;DHT22;22228;53.222;7.446;2022-11-20T00:30:47;1.00;99.90
36186;DHT22;22228;53.222;7.446;2022-11-20T00:33:08;1.10;99.90
36186;DHT22;22228;53.222;7.446;2022-11-20T00:35:29;1.20;99.90
36186;DHT22;22228;53.222;7.446;2022-11-20T00:37:50;1.10;99.90
36186;DHT22;22228;53.222;7.446;2022-11-20T00:40:11;1.10;99.90
36186;DHT22;22228;53.222;7.446;2022-11-20T00:42:31;1.10;99.90
36186;DHT22;22228;53.222;7.446;2022-11-20T00:44:53;1.10;99.90
36186;DHT22;22228;53.222;7.446;2022-11-20T00:47:13;1.00;99.90
36186;DHT22;22228;53.222;7.446;2022-11-20T00:49:35;1.10;99.90
36186;DHT22;22228;53.222;7.446;2022-11-20T00:51:56;1.10;99.90
36186;DHT22;22228;53.222;7.446;2022-11-20T00:54:16;1.20;99.90
36186;DHT22;22228;53.222;7.446;2022-11-20T00:56:37;1.20;99.90
36186;DHT22;22228;53.222;7.446;2022-11-20T00:58:59;1.20;99.90
36186;DHT22;22228;53.222;7.446;2022-11-20T01:01:21;1.20;99.90
36186;DHT22;22228;53.222;7.446;2022-11-20T01:03:46;1.20;99.90
36186;DHT22;22228;53.222;7.446;2022-11-20T01:06:11;1.20;99.90
36186;DHT22;22228;53.222;7.446;2022-11-20T01:08:32;1.20;99.90
36186;DHT22;22228;53.222;7.446;2022-11-20T01:10:52;1.20;99.90
36186;DHT22;22228;53.222;7.446;2022-11-20T01:13:13;1.20;99.90
36186;DHT22;22228;53.222;7.446;2022-11-20T01:15:51;1.20;99.90
36186;DHT22;22228;53.222;7.446;2022-11-20T01:18:11;1.20;99.90
36186;DHT22;22228;53.222;7.446;2022-11-20T01:20:34;1.20;99.90
36186;DHT22;22228;53.222;7.446;2022-11-20T01:22:57;1.20;99.90
36186;DHT22;22228;53.222;7.446;2022-11-20T01:25:17;1.20;99.90
36186;DHT22;22228;53.222;7.446;2022-11-20T01:27:38;1.20;99.90
36186;DHT22;22228;53.222;7.446;2022-11-20T01:29:58;1.20;99.90
36186;DHT22;22228;53.222;7.446;2022-11-20T01:32:19;1.20;99.90
36186;DHT22;22228;53.222;7.446;2022-11-20T01:34:39;1.20;99.90
36186;DHT22;22228;53.222;7.446;2022-11-20T01:37:00;1.20;99.90
36186;DHT22;22228;53.222;7.446;2022-11-20T01:39:23;1.10;99.90
36186;DHT22;22228;53.222;7.446;2022-11-20T01:41:44;1.20;99.90
36186;DHT22;22228;53.222;7.446;2022-11-20T01:44:45;1.20;99.90
36186;DHT22;22228;53.222;7.446;2022-11-20T01:47:08;1.20;99.90
36186;DHT22;22228;53.222;7.446;2022-11-20T01:49:34;1.10;99.90
36186;DHT22;22228;53.222;7.446;2022-11-20T01:51:57;1.00;99.90
36186;DHT22;22228;53.222;7.446;2022-11-20T01:54:25;1.00;99.90
36186;DHT22;22228;53.222;7.446;2022-11-20T01:56:51;1.00;99.90
36186;DHT22;22228;53.222;7.446;2022-11-20T01:59:17;0.90;99.90
36186;DHT22;22228;53.222;7.446;2022-11-20T02:01:38;1.00;99.90
36186;DHT22;22228;53.222;7.446;2022-11-20T02:03:59;1.00;99.90
36186;DHT22;22228;53.222;7.446;2022-11-20T02:06:23;1.00;99.90
36186;DHT22;22228;53.222;7.446;2022-11-20T02:08:44;1.00;99.90
36186;DHT22;22228;53.222;7.446;2022-11-20T02:11:06;1.00;99.90
36186;DHT22;22228;53.222;7.446;2022-11-20T02:13:27;1.00;99.90
36186;DHT22;22228;53.222;7.446;2022-11-20T02:16:02;1.00;99.90
36186;DHT22;22228;53.222;7.446;2022-11-20T02:18:23;1.00;99.90
36186;DHT22;22228;53.222;7.446;2022-11-20T02:20:47;1.00;99.90
36186;DHT22;22228;53.222;7.446;2022-11-20T02:23:11;1.00;99.90
36186;DHT22;22228;53.222;7.446;2022-11-20T02:25:35;1.10;99.90
36186;DHT22;22228;53.222;7.446;2022-11-20T02:27:56;1.10;99.90
36186;DHT22;22228;53.222;7.446;2022-11-20T02:30:17;1.10;99.90
36186;DHT22;22228;53.222;7.446;2022-11-20T02:32:38;1.10;99.90
36186;DHT22;22228;53.222;7.446;2022-11-20T02:35:06;1.20;99.90
36186;DHT22;22228;53.222;7.446;2022-11-20T02:37:32;1.10;99.90
36186;DHT22;22228;53.222;7.446;2022-11-20T02:39:52;1.10;99.90
36186;DHT22;22228;53.222;7.446;2022-11-20T02:42:14;1.20;99.90
36186;DHT22;22228;53.222;7.446;2022-11-20T02:44:34;1.20;99.90
36186;DHT22;22228;53.222;7.446;2022-11-20T02:46:57;1.20;99.90
36186;DHT22;22228;53.222;7.446;2022-11-20T02:49:17;1.20;99.90
36186;DHT22;22228;53.222;7.446;2022-11-20T02:51:38;1.20;99.90
36186;DHT22;22228;53.222;7.446;2022-11-20T02:53:58;1.10;99.90
36186;DHT22;22228;53.222;7.446;2022-11-20T02:56:19;1.10;99.90
36186;DHT22;22228;53.222;7.446;2022-11-20T02:58:41;1.10;99.90
36186;DHT22;22228;53.222;7.446;2022-11-20T03:01:01;1.20;99.90
36186;DHT22;22228;53.222;7.446;2022-11-20T03:03:22;1.20;99.90
36186;DHT22;22228;53.222;7.446;2022-11-20T03:05:42;1.20;99.90
36186;DHT22;22228;53.222;7.446;2022-11-20T03:08:03;1.10;99.90
36186;DHT22;22228;53.222;7.446;2022-11-20T03:10:23;1.10;99.90
36186;DHT22;22228;53.222;7.446;2022-11-20T03:12:44;1.10;99.90
36186;DHT22;22228;53.222;7.446;2022-11-20T03:15:07;1.20;99.90
36186;DHT22;22228;53.222;7.446;2022-11-20T03:17:27;1.20;99.90
36186;DHT22;22228;53.222;7.446;2022-11-20T03:19:48;1.20;99.90
36186;DHT22;22228;53.222;7.446;2022-11-20T03:22:09;1.20;99.90
36186;DHT22;22228;53.222;7.446;2022-11-20T03:24:29;1.10;99.90
36186;DHT22;22228;53.222;7.446;2022-11-20T03:26:49;1.10;99.90
36186;DHT22;22228;53.222;7.446;2022-11-20T03:29:10;1.10;99.90
36186;DHT22;22228;53.222;7.446;2022-11-20T03:31:34;1.10;99.90
36186;DHT22;22228;53.222;7.446;2022-11-20T03:33:56;1.10;99.90
36186;DHT22;22228;53.222;7.446;2022-11-20T03:36:18;1.10;99.90
36186;DHT22;22228;53.222;7.446;2022-11-20T03:38:39;1.10;99.90
36186;DHT22;22228;53.222;7.446;2022-11-20T03:41:00;1.10;99.90
36186;DHT22;22228;53.222;7.446;2022-11-20T03:43:21;1.10;99.90
36186;DHT22;22228;53.222;7.446;2022-11-20T03:45:42;1.10;99.90
36186;DHT22;22228;53.222;7.446;2022-11-20T03:48:04;1.10;99.90
36186;DHT22;22228;53.222;7.446;2022-11-20T03:50:25;1.00;99.90
36186;DHT22;22228;53.222;7.446;2022-11-20T03:52:45;1.00;99.90
36186;DHT22;22228;53.222;7.446;2022-11-20T03:55:07;1.00;99.90
36186;DHT22;22228;53.222;7.446;2022-11-20T03:57:27;1.00;99.90
36186;DHT22;22228;53.222;7.446;2022-11-20T03:59:48;1.00;99.90
36186;DHT22;22228;53.222;7.446;2022-11-20T04:02:08;1.00;99.90
36186;DHT22;22228;53.222;7.446;2022-11-20T04:04:30;1.00;99.90
36186;DHT22;22228;53.222;7.446;2022-11-20T04:06:51;1.00;99.90
36186;DHT22;22228;53.222;7.446;2022-11-20T04:09:11;1.00;99.90
36186;DHT22;22228;53.222;7.446;2022-11-20T04:11:35;1.10;99.90
36186;DHT22;22228;53.222;7.446;2022-11-20T04:13:58;1.00;99.90
36186;DHT22;22228;53.222;7.446;2022-11-20T04:16:20;1.00;99.90
36186;DHT22;22228;53.222;7.446;2022-11-20T04:18:41;1.00;99.90
36186;DHT22;22228;53.222;7.446;2022-11-20T04:21:05;0.90;99.90
36186;DHT22;22228;53.222;7.446;2022-11-20T04:23:26;0.90;99.90
36186;DHT22;22228;53.222;7.446;2022-11-20T04:25:47;0.90;99.90
36186;DHT22;22228;53.222;7.446;2022-11-20T04:28:07;0.90;99.90
36186;DHT22;22228;53.222;7.446;2022-11-20T04:30:28;1.00;99.90
36186;DHT22;22228;53.222;7.446;2022-11-20T04:32:48;1.00;99.90
36186;DHT22;22228;53.222;7.446;2022-11-20T04:35:09;1.10;99.90
36186;DHT22;22228;53.222;7.446;2022-11-20T04:37:30;1.10;99.90
36186;DHT22;22228;53.222;7.446;2022-11-20T04:39:51;1.10;99.90
36186;DHT22;22228;53.222;7.446;2022-11-20T04:42:11;1.10;99.90
36186;DHT22;22228;53.222;7.446;2022-11-20T04:44:50;1.10;99.90
36186;DHT22;22228;53.222;7.446;2022-11-20T04:47:10;1.00;99.90
36186;DHT22;22228;53.222;7.446;2022-11-20T04:49:31;1.00;99.90
36186;DHT22;22228;53.222;7.446;2022-11-20T04:51:53;1.00;99.90
36186;DHT22;22228;53.222;7.446;2022-11-20T04:54:14;1.00;99.90
36186;DHT22;22228;53.222;7.446;2022-11-20T04:56:35;1.00;99.90
36186;DHT22;22228;53.222;7.446;2022-11-20T04:58:55;1.00;99.90
36186;DHT22;22228;53.222;7.446;2022-11-20T05:01:20;1.00;99.90
36186;DHT22;22228;53.222;7.446;2022-11-20T05:03:42;1.10;99.90
36186;DHT22;22228;53.222;7.446;2022-11-20T05:06:03;1.00;99.90
36186;DHT22;22228;53.222;7.446;2022-11-20T05:08:24;1.00;99.90
36186;DHT22;22228;53.222;7.446;2022-11-20T05:10:46;1.10;99.90
36186;DHT22;22228;53.222;7.446;2022-11-20T05:13:07;1.00;99.90
36186;DHT22;22228;53.222;7.446;2022-11-20T05:15:28;1.00;99.90
36186;DHT22;22228;53.222;7.446;2022-11-20T05:17:49;1.10;99.90
36186;DHT22;22228;53.222;7.446;2022-11-20T05:20:10;1.10;99.90
36186;DHT22;22228;53.222;7.446;2022-11-20T05:22:31;1.10;99.90
36186;DHT22;22228;53.222;7.446;2022-11-20T05:24:51;1.10;99.90
36186;DHT22;22228;53.222;7.446;2022-11-20T05:27:13;1.10;99.90
36186;DHT22;22228;53.222;7.446;2022-11-20T05:29:34;1.10;99.90
36186;DHT22;22228;53.222;7.446;2022-11-20T05:31:55;1.10;99.90
36186;DHT22;22228;53.222;7.446;2022-11-20T05:34:15;1.10;99.90
36186;DHT22;22228;53.222;7.446;2022-11-20T05:36:36;1.10;99.90
36186;DHT22;22228;53.222;7.446;2022-11-20T05:38:56;1.20;99.90
36186;DHT22;22228;53.222;7.446;2022-11-20T05:41:18;1.10;99.90
36186;DHT22;22228;53.222;7.446;2022-11-20T05:43:41;1.10;99.90
36186;DHT22;22228;53.222;7.446;2022-11-20T05:46:02;1.10;99.90
36186;DHT22;22228;53.222;7.446;2022-11-20T05:48:23;1.20;99.90
36186;DHT22;22228;53.222;7.446;2022-11-20T05:50:44;1.20;99.90
36186;DHT22;22228;53.222;7.446;2022-11-20T05:53:05;1.20;99.90
36186;DHT22;22228;53.222;7.446;2022-11-20T05:55:26;1.20;99.90
36186;DHT22;22228;53.222;7.446;2022-11-20T05:57:47;1.20;99.90
36186;DHT22;22228;53.222;7.446;2022-11-20T06:00:10;1.20;99.90
36186;DHT22;22228;53.222;7.446;2022-11-20T06:02:31;1.20;99.90
36186;DHT22;22228;53.222;7.446;2022-11-20T06:04:54;1.10;99.90
36186;DHT22;22228;53.222;7.446;2022-11-20T06:07:14;1.10;99.90
36186;DHT22;22228;53.222;7.446;2022-11-20T06:09:35;1.10;99.90
36186;DHT22;22228;53.222;7.446;2022-11-20T06:11:56;1.10;99.90
36186;DHT22;22228;53.222;7.446;2022-11-20T06:14:16;1.00;99.90
36186;DHT22;22228;53.222;7.446;2022-11-20T06:16:38;1.00;99.90
36186;DHT22;22228;53.222;7.446;2022-11-20T06:18:58;0.90;99.90
36186;DHT22;22228;53.222;7.446;2022-11-20T06:21:21;0.90;99.90
36186;DHT22;22228;53.222;7.446;2022-11-20T06:23:42;0.90;99.90
36186;DHT22;22228;53.222;7.446;2022-11-20T06:26:04;0.90;99.90
36186;DHT22;22228;53.222;7.446;2022-11-20T06:28:24;0.90;99.90
36186;DHT22;22228;53.222;7.446;2022-11-20T06:30:45;0.80;99.90
36186;DHT22;22228;53.222;7.446;2022-11-20T06:33:07;0.90;99.90
36186;DHT22;22228;53.222;7.446;2022-11-20T06:35:28;0.80;99.90
36186;DHT22;22228;53.222;7.446;2022-11-20T06:37:49;0.80;99.90
36186;DHT22;22228;53.222;7.446;2022-11-20T06:40:10;0.80;99.90
36186;DHT22;22228;53.222;7.446;2022-11-20T06:42:32;0.80;99.90
36186;DHT22;22228;53.222;7.446;2022-11-20T06:44:52;0.80;99.90
36186;DHT22;22228;53.222;7.446;2022-11-20T06:47:13;0.80;99.90
36186;DHT22;22228;53.222;7.446;2022-11-20T06:49:35;0.80;99.90
36186;DHT22;22228;53.222;7.446;2022-11-20T06:51:57;0.80;99.90
36186;DHT22;22228;53.222;7.446;2022-11-20T06:54:18;0.80;99.90
36186;DHT22;22228;53.222;7.446;2022-11-20T06:56:38;0.80;99.90
36186;DHT22;22228;53.222;7.446;2022-11-20T06:59:03;0.80;99.90
36186;DHT22;22228;53.222;7.446;2022-11-20T07:01:24;0.80;99.90
36186;DHT22;22228;53.222;7.446;2022-11-20T07:03:45;0.70;99.90
36186;DHT22;22228;53.222;7.446;2022-11-20T07:06:08;0.70;99.90
36186;DHT22;22228;53.222;7.446;2022-11-20T07:08:29;0.70;99.90
36186;DHT22;22228;53.222;7.446;2022-11-20T07:10:50;0.80;99.90
36186;DHT22;22228;53.222;7.446;2022-11-20T07:13:11;0.80;99.90
36186;DHT22;22228;53.222;7.446;2022-11-20T07:15:32;0.90;99.90
36186;DHT22;22228;53.222;7.446;2022-11-20T07:17:53;1.00;99.90
36186;DHT22;22228;53.222;7.446;2022-11-20T07:20:14;1.00;99.90
36186;DHT22;22228;53.222;7.446;2022-11-20T07:22:36;1.00;99.90
36186;DHT22;22228;53.222;7.446;2022-11-20T07:24:56;1.00;99.90
36186;DHT22;22228;53.222;7.446;2022-11-20T07:27:17;1.00;99.90
36186;DHT22;22228;53.222;7.446;2022-11-20T07:29:37;1.00;99.90
36186;DHT22;22228;53.222;7.446;2022-11-20T07:31:58;0.90;99.90
36186;DHT22;22228;53.222;7.446;2022-11-20T07:34:19;0.90;99.90
36186;DHT22;22228;53.222;7.446;2022-11-20T07:36:39;0.90;99.90
36186;DHT22;22228;53.222;7.446;2022-11-20T07:39:01;0.80;99.90
36186;DHT22;22228;53.222;7.446;2022-11-20T07:41:22;0.90;99.90
36186;DHT22;22228;53.222;7.446;2022-11-20T07:43:42;1.00;99.90
36186;DHT22;22228;53.222;7.446;2022-11-20T07:46:03;1.00;99.90
36186;DHT22;22228;53.222;7.446;2022-11-20T07:48:24;1.00;99.90
36186;DHT22;22228;53.222;7.446;2022-11-20T07:50:44;1.00;99.90
36186;DHT22;22228;53.222;7.446;2022-11-20T07:53:05;1.10;99.90
36186;DHT22;22228;53.222;7.446;2022-11-20T07:55:27;1.10;99.90
36186;DHT22;22228;53.222;7.446;2022-11-20T07:57:54;1.00;99.90
36186;DHT22;22228;53.222;7.446;2022-11-20T08:00:15;1.00;99.90
36186;DHT22;22228;53.222;7.446;2022-11-20T08:02:36;1.00;99.90
36186;DHT22;22228;53.222;7.446;2022-11-20T08:04:57;1.00;99.90
36186;DHT22;22228;53.222;7.446;2022-11-20T08:07:18;1.10;99.90
36186;DHT22;22228;53.222;7.446;2022-11-20T08:09:38;1.10;99.90
36186;DHT22;22228;53.222;7.446;2022-11-20T08:12:00;1.20;99.90
36186;DHT22;22228;53.222;7.446;2022-11-20T08:14:38;1.20;99.90
36186;DHT22;22228;53.222;7.446;2022-11-20T08:16:59;1.30;99.90
36186;DHT22;22228;53.222;7.446;2022-11-20T08:19:20;1.20;99.90
36186;DHT22;22228;53.222;7.446;2022-11-20T08:21:40;1.30;99.90
36186;DHT22;22228;53.222;7.446;2022-11-20T08:24:01;1.30;99.90
36186;DHT22;22228;53.222;7.446;2022-11-20T08:26:22;1.40;99.90
36186;DHT22;22228;53.222;7.446;2022-11-20T08:28:43;1.40;99.90
36186;DHT22;22228;53.222;7.446;2022-11-20T08:31:04;1.50;99.90
36186;DHT22;22228;53.222;7.446;2022-11-20T08:33:25;1.50;99.90
36186;DHT22;22228;53.222;7.446;2022-11-20T08:35:46;1.50;99.90
36186;DHT22;22228;53.222;7.446;2022-11-20T08:38:07;1.50;99.90
36186;DHT22;22228;53.222;7.446;2022-11-20T08:40:27;1.50;99.90
36186;DHT22;22228;53.222;7.446;2022-11-20T08:42:48;1.60;99.90
36186;DHT22;22228;53.222;7.446;2022-11-20T08:45:10;1.60;99.90
36186;DHT22;22228;53.222;7.446;2022-11-20T08:47:31;1.60;99.90
36186;DHT22;22228;53.222;7.446;2022-11-20T08:49:51;1.60;99.90
36186;DHT22;22228;53.222;7.446;2022-11-20T08:52:12;1.60;99.90
36186;DHT22;22228;53.222;7.446;2022-11-20T08:54:32;1.70;99.90
36186;DHT22;22228;53.222;7.446;2022-11-20T08:56:53;1.70;99.90
36186;DHT22;22228;53.222;7.446;2022-11-20T08:59:14;1.80;99.90
36186;DHT22;22228;53.222;7.446;2022-11-20T09:01:35;1.80;99.90
36186;DHT22;22228;53.222;7.446;2022-11-20T09:03:56;1.80;99.90
36186;DHT22;22228;53.222;7.446;2022-11-20T09:06:16;1.80;99.90
36186;DHT22;22228;53.222;7.446;2022-11-20T09:08:37;1.80;99.90
36186;DHT22;22228;53.222;7.446;2022-11-20T09:10:58;1.80;99.90
36186;DHT22;22228;53.222;7.446;2022-11-20T09:13:19;1.80;99.90
36186;DHT22;22228;53.222;7.446;2022-11-20T09:15:39;1.80;99.90
36186;DHT22;22228;53.222;7.446;2022-11-20T09:18:02;1.80;99.90
36186;DHT22;22228;53.222;7.446;2022-11-20T09:20:23;1.80;99.90
36186;DHT22;22228;53.222;7.446;2022-11-20T09:22:43;1.80;99.90
36186;DHT22;22228;53.222;7.446;2022-11-20T09:25:05;1.80;99.90
36186;DHT22;22228;53.222;7.446;2022-11-20T09:27:25;1.80;99.90
36186;DHT22;22228;53.222;7.446;2022-11-20T09:29:46;1.80;99.90
36186;DHT22;22228;53.222;7.446;2022-11-20T09:32:06;1.90;99.90
36186;DHT22;22228;53.222;7.446;2022-11-20T09:34:31;1.90;99.90
36186;DHT22;22228;53.222;7.446;2022-11-20T09:36:51;2.00;99.90
36186;DHT22;22228;53.222;7.446;2022-11-20T09:39:12;2.00;99.90
36186;DHT22;22228;53.222;7.446;2022-11-20T09:41:44;2.00;99.90
36186;DHT22;22228;53.222;7.446;2022-11-20T09:44:16;2.00;99.90
36186;DHT22;22228;53.222;7.446;2022-11-20T09:46:44;2.00;99.90
36186;DHT22;22228;53.222;7.446;2022-11-20T09:49:19;2.00;99.90
36186;DHT22;22228;53.222;7.446;2022-11-20T09:51:50;2.10;99.90
36186;DHT22;22228;53.222;7.446;2022-11-20T09:54:16;2.10;99.90
36186;DHT22;22228;53.222;7.446;2022-11-20T09:56:40;2.10;99.90
36186;DHT22;22228;53.222;7.446;2022-11-20T09:59:04;2.20;99.90
36186;DHT22;22228;53.222;7.446;2022-11-20T10:01:29;2.20;99.90
36186;DHT22;22228;53.222;7.446;2022-11-20T10:03:55;2.20;99.90
36186;DHT22;22228;53.222;7.446;2022-11-20T10:06:28;2.30;99.90
36186;DHT22;22228;53.222;7.446;2022-11-20T10:08:55;2.30;99.90
36186;DHT22;22228;53.222;7.446;2022-11-20T10:11:25;2.30;99.90
36186;DHT22;22228;53.222;7.446;2022-11-20T10:13:58;2.30;99.90
36186;DHT22;22228;53.222;7.446;2022-11-20T10:16:28;2.40;99.90
36186;DHT22;22228;53.222;7.446;2022-11-20T10:19:06;2.50;99.90
36186;DHT22;22228;53.222;7.446;2022-11-20T10:21:37;2.50;99.90
36186;DHT22;22228;53.222;7.446;2022-11-20T10:24:22;2.50;99.90
36186;DHT22;22228;53.222;7.446;2022-11-20T10:26:49;2.60;99.90
36186;DHT22;22228;53.222;7.446;2022-11-20T10:29:13;2.60;99.90
36186;DHT22;22228;53.222;7.446;2022-11-20T10:31:37;2.70;99.90
36186;DHT22;22228;53.222;7.446;2022-11-20T10:34:02;2.70;99.90
36186;DHT22;22228;53.222;7.446;2022-11-20T10:36:27;2.70;99.90
36186;DHT22;22228;53.222;7.446;2022-11-20T10:38:51;2.60;99.90
36186;DHT22;22228;53.222;7.446;2022-11-20T10:41:19;2.50;99.90
36186;DHT22;22228;53.222;7.446;2022-11-20T10:43:46;2.60;99.90
36186;DHT22;22228;53.222;7.446;2022-11-20T10:46:12;2.60;99.90
36186;DHT22;22228;53.222;7.446;2022-11-20T10:48:43;2.70;99.90
36186;DHT22;22228;53.222;7.446;2022-11-20T10:51:21;2.80;99.90
36186;DHT22;22228;53.222;7.446;2022-11-20T10:53:53;2.90;99.90
36186;DHT22;22228;53.222;7.446;2022-11-20T10:56:20;2.80;99.90
36186;DHT22;22228;53.222;7.446;2022-11-20T10:58:47;2.70;99.90
36186;DHT22;22228;53.222;7.446;2022-11-20T11:01:15;2.70;99.90
36186;DHT22;22228;53.222;7.446;2022-11-20T11:03:35;2.70;99.90
36186;DHT22;22228;53.222;7.446;2022-11-20T11:06:02;2.80;99.90
36186;DHT22;22228;53.222;7.446;2022-11-20T11:08:28;2.70;99.90
36186;DHT22;22228;53.222;7.446;2022-11-20T11:10:55;2.80;99.90
36186;DHT22;22228;53.222;7.446;2022-11-20T11:13:23;2.90;99.90
36186;DHT22;22228;53.222;7.446;2022-11-20T11:15:44;3.00;99.90
36186;DHT22;22228;53.222;7.446;2022-11-20T11:18:05;3.10;99.90
36186;DHT22;22228;53.222;7.446;2022-11-20T11:20:28;3.10;99.90
36186;DHT22;22228;53.222;7.446;2022-11-20T11:22:51;3.10;99.90
36186;DHT22;22228;53.222;7.446;2022-11-20T11:25:24;3.10;99.90
36186;DHT22;22228;53.222;7.446;2022-11-20T11:27:46;3.10;99.90
36186;DHT22;22228;53.222;7.446;2022-11-20T11:30:17;3.20;99.90
36186;DHT22;22228;53.222;7.446;2022-11-20T11:32:37;3.30;99.90
36186;DHT22;22228;53.222;7.446;2022-11-20T11:34:59;3.40;99.90
36186;DHT22;22228;53.222;7.446;2022-11-20T11:37:20;3.50;99.90
36186;DHT22;22228;53.222;7.446;2022-11-20T11:39:42;3.50;99.90
36186;DHT22;22228;53.222;7.446;2022-11-20T11:42:03;3.60;99.90
36186;DHT22;22228;53.222;7.446;2022-11-20T11:44:26;3.60;99.90
36186;DHT22;22228;53.222;7.446;2022-11-20T11:47:11;3.70;99.90
36186;DHT22;22228;53.222;7.446;2022-11-20T11:49:38;3.80;99.90
36186;DHT22;22228;53.222;7.446;2022-11-20T11:52:08;3.80;99.90
36186;DHT22;22228;53.222;7.446;2022-11-20T11:54:36;3.80;99.90
36186;DHT22;22228;53.222;7.446;2022-11-20T11:57:01;3.80;99.90
36186;DHT22;22228;53.222;7.446;2022-11-20T11:59:27;3.80;99.90
36186;DHT22;22228;53.222;7.446;2022-11-20T12:01:53;3.80;99.90
36186;DHT22;22228;53.222;7.446;2022-11-20T12:04:23;3.80;99.90
36186;DHT22;22228;53.222;7.446;2022-11-20T12:06:51;3.80;99.90
36186;DHT22;22228;53.222;7.446;2022-11-20T12:09:13;3.80;99.90
36186;DHT22;22228;53.222;7.446;2022-11-20T12:11:38;3.80;99.90
36186;DHT22;22228;53.222;7.446;2022-11-20T12:14:09;3.90;99.90
36186;DHT22;22228;53.222;7.446;2022-11-20T12:16:36;3.90;99.90
36186;DHT22;22228;53.222;7.446;2022-11-20T12:18:56;3.90;99.90
36186;DHT22;22228;53.222;7.446;2022-11-20T12:21:28;3.90;99.90
36186;DHT22;22228;53.222;7.446;2022-11-20T12:24:04;3.90;99.90
36186;DHT22;22228;53.222;7.446;2022-11-20T12:26:39;3.90;99.90
36186;DHT22;22228;53.222;7.446;2022-11-20T12:29:09;3.80;99.90
36186;DHT22;22228;53.222;7.446;2022-11-20T12:31:45;3.90;99.90
36186;DHT22;22228;53.222;7.446;2022-11-20T12:34:20;3.80;99.90
36186;DHT22;22228;53.222;7.446;2022-11-20T12:36:49;3.70;99.90
36186;DHT22;22228;53.222;7.446;2022-11-20T12:39:40;3.60;99.90
36186;DHT22;22228;53.222;7.446;2022-11-20T12:42:31;3.60;99.90
36186;DHT22;22228;53.222;7.446;2022-11-20T12:45:34;3.60;99.90
36186;DHT22;22228;53.222;7.446;2022-11-20T12:51:06;3.70;99.90
36186;DHT22;22228;53.222;7.446;2022-11-20T12:53:36;3.70;99.90
36186;DHT22;22228;53.222;7.446;2022-11-20T12:56:09;3.70;99.90
36186;DHT22;22228;53.222;7.446;2022-11-20T12:58:35;3.80;99.90
36186;DHT22;22228;53.222;7.446;2022-11-20T13:01:03;3.80;99.90
36186;DHT22;22228;53.222;7.446;2022-11-20T13:03:39;3.70;99.90
36186;DHT22;22228;53.222;7.446;2022-11-20T13:06:10;3.70;99.90
36186;DHT22;22228;53.222;7.446;2022-11-20T13:08:34;3.60;99.90
36186;DHT22;22228;53.222;7.446;2022-11-20T13:10:59;3.60;99.90
36186;DHT22;22228;53.222;7.446;2022-11-20T13:13:25;3.50;99.90
36186;DHT22;22228;53.222;7.446;2022-11-20T13:15:55;3.50;99.90
36186;DHT22;22228;53.222;7.446;2022-11-20T13:18:17;3.50;99.90
36186;DHT22;22228;53.222;7.446;2022-11-20T13:20:42;3.40;99.90
36186;DHT22;22228;53.222;7.446;2022-11-20T13:23:02;3.50;99.90
36186;DHT22;22228;53.222;7.446;2022-11-20T13:25:25;3.50;99.90
36186;DHT22;22228;53.222;7.446;2022-11-20T13:27:47;3.60;99.90
36186;DHT22;22228;53.222;7.446;2022-11-20T13:30:14;3.70;99.90
36186;DHT22;22228;53.222;7.446;2022-11-20T13:32:36;3.70;99.90
36186;DHT22;22228;53.222;7.446;2022-11-20T13:34:58;3.70;99.90
36186;DHT22;22228;53.222;7.446;2022-11-20T13:37:27;3.70;99.90
36186;DHT22;22228;53.222;7.446;2022-11-20T13:39:47;3.80;99.90
36186;DHT22;22228;53.222;7.446;2022-11-20T13:42:25;3.70;99.90
36186;DHT22;22228;53.222;7.446;2022-11-20T13:44:53;3.70;99.90
36186;DHT22;22228;53.222;7.446;2022-11-20T13:47:21;3.70;99.90
36186;DHT22;22228;53.222;7.446;2022-11-20T13:49:42;3.70;99.90
36186;DHT22;22228;53.222;7.446;2022-11-20T13:52:36;3.70;99.90
36186;DHT22;22228;53.222;7.446;2022-11-20T13:55:10;3.70;99.90
36186;DHT22;22228;53.222;7.446;2022-11-20T13:58:07;3.70;99.90
36186;DHT22;22228;53.222;7.446;2022-11-20T14:00:32;3.70;99.90
36186;DHT22;22228;53.222;7.446;2022-11-20T14:03:00;3.60;99.90
36186;DHT22;22228;53.222;7.446;2022-11-20T14:05:23;3.70;99.90
36186;DHT22;22228;53.222;7.446;2022-11-20T14:07:43;3.70;99.90
36186;DHT22;22228;53.222;7.446;2022-11-20T14:10:05;3.60;99.90
36186;DHT22;22228;53.222;7.446;2022-11-20T14:12:28;3.60;99.90
36186;DHT22;22228;53.222;7.446;2022-11-20T14:14:52;3.60;99.90
36186;DHT22;22228;53.222;7.446;2022-11-20T14:17:18;3.60;99.90
36186;DHT22;22228;53.222;7.446;2022-11-20T14:19:39;3.50;99.90
36186;DHT22;22228;53.222;7.446;2022-11-20T14:22:16;3.50;99.90
36186;DHT22;22228;53.222;7.446;2022-11-20T14:24:37;3.40;99.90
36186;DHT22;22228;53.222;7.446;2022-11-20T14:26:58;3.40;99.90
36186;DHT22;22228;53.222;7.446;2022-11-20T14:29:20;3.30;99.90
36186;DHT22;22228;53.222;7.446;2022-11-20T14:31:43;3.20;99.90
36186;DHT22;22228;53.222;7.446;2022-11-20T14:34:04;3.10;99.90
36186;DHT22;22228;53.222;7.446;2022-11-20T14:36:25;3.00;99.90
36186;DHT22;22228;53.222;7.446;2022-11-20T14:38:46;2.90;99.90
36186;DHT22;22228;53.222;7.446;2022-11-20T14:41:08;2.90;99.90
36186;DHT22;22228;53.222;7.446;2022-11-20T14:43:29;2.80;99.90
36186;DHT22;22228;53.222;7.446;2022-11-20T14:45:55;2.70;99.90
36186;DHT22;22228;53.222;7.446;2022-11-20T14:48:17;2.60;99.90
36186;DHT22;22228;53.222;7.446;2022-11-20T14:50:38;2.60;99.90
36186;DHT22;22228;53.222;7.446;2022-11-20T14:53:00;2.50;99.90
36186;DHT22;22228;53.222;7.446;2022-11-20T14:55:28;2.40;99.90
36186;DHT22;22228;53.222;7.446;2022-11-20T14:57:54;2.30;99.90
36186;DHT22;22228;53.222;7.446;2022-11-20T15:00:20;2.30;99.90
36186;DHT22;22228;53.222;7.446;2022-11-20T15:02:42;2.20;99.90
36186;DHT22;22228;53.222;7.446;2022-11-20T15:05:05;2.10;99.90
36186;DHT22;22228;53.222;7.446;2022-11-20T15:07:27;2.10;99.90
36186;DHT22;22228;53.222;7.446;2022-11-20T15:09:59;2.00;99.90
36186;DHT22;22228;53.222;7.446;2022-11-20T15:12:20;2.00;99.90
36186;DHT22;22228;53.222;7.446;2022-11-20T15:14:41;1.90;99.90
36186;DHT22;22228;53.222;7.446;2022-11-20T15:17:01;1.90;99.90
36186;DHT22;22228;53.222;7.446;2022-11-20T15:19:24;1.90;99.90
36186;DHT22;22228;53.222;7.446;2022-11-20T15:21:45;1.80;99.90
36186;DHT22;22228;53.222;7.446;2022-11-20T15:24:08;1.80;99.90